KLUF/LUF METAR and TAF weather

Enter ICAO airport designator
Station Type Date Time Source
KLUF METAR 2021/04/13 05:58 UTC NOAA

KLUF 130558Z AUTO 22009KT 10SM CLR 24/03 A2969 RMK AO2 SLP042 T02360030 10318 20235 50012 $


Station Type Date Time Source
KLUF Decoded METAR 2021/04/13 05:58 UTC NOAA

Luke Air Force Base / Phoenix, AZ, United States (KLUF) 33-32N 112-23W 332M
Apr 13, 2021 - 01:58 AM EDT / 2021.04.13 0558 UTC
Wind: from the SW (220 degrees) at 10 MPH (9 KT):0
Visibility: 10 mile(s):0
Sky conditions: clear
Temperature: 74.5 F (23.6 C)
Dew Point: 37.4 F (3.0 C)
Relative Humidity: 26%
Pressure (altimeter): 29.69 in. Hg (1005 hPa)
Pressure tendency: 0.04 inches (1.2 hPa) higher than three hours ago
ob: KLUF 130558Z AUTO 22009KT 10SM CLR 24/03 A2969 RMK AO2 SLP042 T02360030 10318 20235 50012
cycle: 6

Station Type Date Time Source
KLUF TAF 2021/04/13 04:12 UTC NOAA

TAF TAF KLUF 130400Z 1304/1410 VRB06KT 9999 FEW250 QNH2963INS
BECMG 1320/1321 23013G22KT 9999 SCT250 QNH2965INS
BECMG 1401/1402 VRB06KT 9999 SCT250 QNH2970INS TX31/1323Z TN14/1313Z

Example: see airport list